CheckWX is a tool to help pilots better visualize weather data.  It is not intended as a substitute for an official pre-flight weather briefing.

16:04:50 UTC

WBGR TAF
Miri Airport
Miri, Malaysia
TAF WBGR 181100Z 1812/1912 08005KT 9999 FEW014

Mar-18@
12:00 UTC

Mar-18 @ 12:00 UTC

Mar-19@
12:00 UTC

Mar-19 @ 12:00 UTC

TAF WBGR 181100Z 1812/1912 08005KT 9999 FEW014
Wind
  • 080° at 5 KTS
Cloud Levels
  • Few at 1,400' AGL